createdAt,value
2023-04-11T00:02:21.885Z,100141.22
2023-04-11T00:05:07.877Z,100144.75
2023-04-11T00:07:53.119Z,100150.72
2023-04-11T00:10:37.935Z,100135.25
2023-04-11T00:13:22.914Z,100143.00
2023-04-11T00:16:09.194Z,100139.50
2023-04-11T00:18:54.925Z,100153.28
2023-04-11T00:21:40.269Z,100152.44
2023-04-11T00:24:25.487Z,100145.63
2023-04-11T00:27:10.396Z,100131.06
2023-04-11T00:29:55.700Z,100116.34
2023-04-11T00:32:40.680Z,100124.13
2023-04-11T00:35:26.225Z,100113.84
2023-04-11T00:38:11.304Z,100112.06
2023-04-11T00:40:56.116Z,100112.22
2023-04-11T00:43:41.250Z,100095.94
2023-04-11T00:46:26.653Z,100083.13
2023-04-11T00:49:12.007Z,100079.72
2023-04-11T00:51:57.693Z,100084.94
2023-04-11T00:54:42.953Z,100083.97
2023-04-11T00:57:27.953Z,100073.66
2023-04-11T01:00:14.142Z,100064.97
2023-04-11T01:02:59.523Z,100081.31
2023-04-11T01:05:46.667Z,100063.41
2023-04-11T01:08:32.978Z,100044.34
2023-04-11T01:11:19.044Z,100054.56
2023-04-11T01:14:05.163Z,100059.66
2023-04-11T01:16:50.622Z,100058.03
2023-04-11T01:19:36.105Z,100068.25
2023-04-11T01:22:22.641Z,100059.72
2023-04-11T01:25:08.717Z,100053.72
2023-04-11T01:27:53.892Z,100057.19
2023-04-11T01:30:39.198Z,100057.22
2023-04-11T01:33:24.969Z,100040.91
2023-04-11T01:36:10.475Z,100031.44
2023-04-11T01:38:55.940Z,100039.28
2023-04-11T01:41:41.896Z,100032.31
2023-04-11T01:44:28.126Z,100031.34
2023-04-11T01:47:13.379Z,100050.25
2023-04-11T01:49:58.564Z,100047.69
2023-04-11T01:52:43.523Z,100041.66
2023-04-11T01:55:28.418Z,100046.00
2023-04-11T01:58:13.249Z,100046.81
2023-04-11T02:00:58.110Z,100051.03
2023-04-11T02:03:43.193Z,100058.84
2023-04-11T02:06:28.316Z,100045.31
2023-04-11T02:09:13.615Z,100036.75
2023-04-11T02:11:58.421Z,100042.00
2023-04-11T02:14:45.711Z,100035.06
2023-04-11T02:17:30.573Z,100037.56
2023-04-11T02:20:15.807Z,100034.91
2023-04-11T02:23:01.211Z,100032.34
2023-04-11T02:25:46.152Z,100034.06
2023-04-11T02:28:31.634Z,100036.75
2023-04-11T02:31:16.562Z,100038.44
2023-04-11T02:34:01.954Z,100034.94
2023-04-11T02:36:47.307Z,100048.84
2023-04-11T02:39:32.132Z,100052.47
2023-04-11T02:42:17.356Z,100044.00
2023-04-11T02:45:02.694Z,100052.59
2023-04-11T02:47:48.281Z,100057.00
2023-04-11T02:50:33.768Z,100061.38
2023-04-11T02:53:19.095Z,100069.25
2023-04-11T02:56:04.689Z,100065.59
2023-04-11T02:58:49.912Z,100048.91
2023-04-11T03:01:35.527Z,100026.22
2023-04-11T03:04:20.920Z,100014.19
2023-04-11T03:07:06.278Z,100005.38
2023-04-11T03:09:51.146Z,100026.50
2023-04-11T03:12:36.033Z,100011.16
2023-04-11T03:15:21.504Z,100010.22
2023-04-11T03:18:06.344Z,100019.31
2023-04-11T03:20:51.818Z,100012.50
2023-04-11T03:23:38.492Z,100039.09
2023-04-11T03:26:25.141Z,100055.34
2023-04-11T03:29:10.554Z,100058.09
2023-04-11T03:31:55.417Z,100066.09
2023-04-11T03:34:40.298Z,100073.13
2023-04-11T03:37:25.672Z,100077.38
2023-04-11T03:40:11.206Z,100073.06
2023-04-11T03:42:56.463Z,100083.28
2023-04-11T03:45:41.529Z,100099.56
2023-04-11T03:48:26.481Z,100086.72
2023-04-11T03:51:11.973Z,100098.66
2023-04-11T03:53:57.555Z,100091.69
2023-04-11T03:56:42.544Z,100091.63
2023-04-11T03:59:27.989Z,100098.47
2023-04-11T04:02:15.196Z,100092.47
2023-04-11T04:05:00.694Z,100099.25
2023-04-11T04:07:46.039Z,100097.63
2023-04-11T04:10:31.371Z,100099.34
2023-04-11T04:13:16.229Z,100086.47
2023-04-11T04:16:03.525Z,100091.69
2023-04-11T04:18:48.850Z,100066.91
2023-04-11T04:21:34.093Z,100076.38
2023-04-11T04:24:19.232Z,100082.31
2023-04-11T04:27:04.662Z,100084.91
2023-04-11T04:29:53.930Z,100086.72
2023-04-11T04:32:48.893Z,100083.28
2023-04-11T04:35:34.834Z,100108.94
2023-04-11T04:38:20.133Z,100084.69
2023-04-11T04:41:05.420Z,100080.94
2023-04-11T04:43:50.798Z,100088.50
2023-04-11T04:46:35.782Z,100085.06
2023-04-11T04:49:20.695Z,100086.81
2023-04-11T04:52:05.942Z,100082.47
2023-04-11T04:54:51.432Z,100089.22
2023-04-11T04:57:36.176Z,100116.66
2023-04-11T05:00:23.113Z,100104.72
2023-04-11T05:03:08.666Z,100108.19
2023-04-11T05:05:54.531Z,100117.91
2023-04-11T05:08:39.982Z,100116.13
2023-04-11T05:11:28.907Z,100123.81
2023-04-11T05:14:13.956Z,100126.44
2023-04-11T05:16:59.351Z,100129.00
2023-04-11T05:19:44.747Z,100123.00
2023-04-11T05:22:29.851Z,100126.59
2023-04-11T05:25:14.809Z,100124.94
2023-04-11T05:28:00.021Z,100132.88
2023-04-11T05:30:45.402Z,100158.00
2023-04-11T05:33:30.890Z,100170.50
2023-04-11T05:36:16.253Z,100161.44
2023-04-11T05:39:01.312Z,100135.88
2023-04-11T05:41:46.264Z,100140.81
2023-04-11T05:44:31.637Z,100153.75
2023-04-11T05:47:16.647Z,100153.44
2023-04-11T05:50:02.159Z,100179.28
2023-04-11T05:52:47.382Z,100223.63
2023-04-11T05:55:33.210Z,100185.09
2023-04-11T05:58:18.487Z,100201.25
2023-04-11T06:01:04.630Z,100167.03
2023-04-11T06:03:49.934Z,100147.19
2023-04-11T06:06:35.265Z,100150.69
2023-04-11T06:09:21.222Z,100165.09
2023-04-11T06:12:06.582Z,100196.81
2023-04-11T06:14:51.946Z,100218.63
2023-04-11T06:17:37.468Z,100226.34
2023-04-11T06:20:23.486Z,100226.72
2023-04-11T06:23:08.995Z,100234.41
2023-04-11T06:25:54.418Z,100238.63
2023-04-11T06:28:39.747Z,100259.25
2023-04-11T06:31:25.326Z,100269.47
2023-04-11T06:34:10.781Z,100266.88
2023-04-11T06:36:56.185Z,100261.50
2023-04-11T06:39:41.512Z,100282.00
2023-04-11T06:42:26.874Z,100283.94
2023-04-11T06:45:12.736Z,100289.19
2023-04-11T06:47:57.767Z,100289.88
2023-04-11T06:50:43.101Z,100286.69
2023-04-11T06:53:28.470Z,100283.25
2023-04-11T06:56:14.043Z,100293.50
2023-04-11T06:58:59.358Z,100289.41
2023-04-11T07:01:45.010Z,100276.63
2023-04-11T07:04:30.184Z,100296.72
2023-04-11T07:07:15.518Z,100306.81
2023-04-11T07:10:00.979Z,100308.78
2023-04-11T07:12:46.365Z,100299.50
2023-04-11T07:15:31.293Z,100309.53
2023-04-11T07:18:16.813Z,100310.13
2023-04-11T07:21:02.219Z,100313.00
2023-04-11T07:23:48.385Z,100313.59
2023-04-11T07:26:33.174Z,100314.66
2023-04-11T07:29:19.033Z,100310.25
2023-04-11T07:32:04.136Z,100304.34
2023-04-11T07:34:49.703Z,100315.75
2023-04-11T07:37:35.099Z,100319.28
2023-04-11T07:40:20.437Z,100321.97
2023-04-11T07:43:05.795Z,100315.81
2023-04-11T07:45:50.749Z,100316.19
2023-04-11T07:48:36.216Z,100311.66
2023-04-11T07:51:21.594Z,100308.91
2023-04-11T07:54:06.981Z,100320.91
2023-04-11T07:56:52.362Z,100340.44
2023-04-11T07:59:37.692Z,100345.22
2023-04-11T08:02:23.003Z,100346.88
2023-04-11T08:05:08.645Z,100337.56
2023-04-11T08:07:53.876Z,100317.69
2023-04-11T08:10:39.321Z,100318.31
2023-04-11T08:13:24.796Z,100292.09
2023-04-11T08:16:11.876Z,100253.88
2023-04-11T08:18:57.065Z,100219.50
2023-04-11T08:21:43.430Z,100201.41
2023-04-11T08:24:28.492Z,100232.38
2023-04-11T08:27:13.793Z,100217.94
2023-04-11T08:29:58.842Z,100233.41
2023-04-11T08:32:44.230Z,100226.56
2023-04-11T08:35:29.747Z,100233.22
2023-04-11T08:38:15.227Z,100235.41
2023-04-11T08:41:00.643Z,100194.13
2023-04-11T08:43:45.584Z,100147.69
2023-04-11T08:46:32.694Z,100084.16
2023-04-11T08:49:18.202Z,100023.81
2023-04-11T08:52:03.563Z,99993.16
2023-04-11T08:54:51.479Z,99994.34
2023-04-11T08:57:36.614Z,100069.25
2023-04-11T09:00:24.129Z,100091.31
2023-04-11T09:03:11.605Z,100063.31
2023-04-11T09:05:57.028Z,100033.66
2023-04-11T09:08:42.407Z,100019.31
2023-04-11T09:11:27.524Z,100008.91
2023-04-11T09:14:12.733Z,99996.97
2023-04-11T09:16:59.122Z,100006.75
2023-04-11T09:19:45.139Z,100011.13
2023-04-11T09:22:35.624Z,99958.38
2023-04-11T09:25:22.240Z,99933.34
2023-04-11T09:28:10.104Z,99943.66
2023-04-11T09:30:56.162Z,99984.19
2023-04-11T09:33:53.126Z,99980.69
2023-04-11T09:36:39.215Z,100008.19
2023-04-11T09:39:24.807Z,100029.78
2023-04-11T09:42:25.210Z,100033.03
2023-04-11T09:45:17.485Z,100048.84
2023-04-11T09:48:02.485Z,100074.69
2023-04-11T09:50:49.091Z,100105.94
2023-04-11T09:53:35.281Z,100114.47
2023-04-11T09:56:20.689Z,100136.06
2023-04-11T09:59:06.459Z,100123.72
2023-04-11T10:01:53.076Z,100177.84
2023-04-11T10:04:38.310Z,100212.22
2023-04-11T10:07:23.701Z,100242.81
2023-04-11T10:10:08.959Z,100248.13
2023-04-11T10:12:54.255Z,100316.19
2023-04-11T10:16:05.921Z,100328.41
2023-04-11T10:18:54.035Z,100319.38
2023-04-11T10:21:39.295Z,100330.00
2023-04-11T10:24:24.664Z,100308.00
2023-04-11T10:27:09.760Z,100337.19
2023-04-11T10:29:54.654Z,100342.63
2023-04-11T10:32:40.759Z,100303.47
2023-04-11T10:35:25.747Z,100298.56
2023-04-11T10:38:42.228Z,100261.19
2023-04-11T10:41:28.615Z,100242.47
2023-04-11T10:44:18.427Z,100265.88
2023-04-11T10:47:16.757Z,100250.66
2023-04-11T10:50:03.142Z,100279.66
2023-04-11T10:52:48.617Z,100263.59
2023-04-11T10:55:50.749Z,100231.91
2023-04-11T10:58:40.215Z,100224.94
2023-04-11T11:01:31.889Z,100199.13
2023-04-11T11:04:39.148Z,100190.19
2023-04-11T11:07:24.721Z,100173.69
2023-04-11T11:10:10.196Z,100179.13
2023-04-11T11:12:55.186Z,100146.34
2023-04-11T11:15:47.536Z,100143.84
2023-04-11T11:18:32.769Z,100135.38
2023-04-11T11:21:27.401Z,100094.25
2023-04-11T11:24:13.520Z,100110.13
2023-04-11T11:26:58.994Z,100145.25
2023-04-11T11:29:44.245Z,100176.94
2023-04-11T11:32:29.389Z,100207.59
2023-04-11T11:35:14.653Z,100239.19
2023-04-11T11:38:00.202Z,100243.19
2023-04-11T11:40:47.570Z,100218.22
2023-04-11T11:43:35.953Z,100200.84
2023-04-11T11:46:21.079Z,100207.00
2023-04-11T11:49:08.296Z,100185.94
2023-04-11T11:51:53.548Z,100233.00
2023-04-11T11:54:46.141Z,100181.63
2023-04-11T11:57:32.753Z,100191.09
2023-04-11T12:00:25.552Z,100233.25
2023-04-11T12:03:10.495Z,100214.38
2023-04-11T12:05:55.867Z,100152.06
2023-04-11T12:08:41.198Z,100142.56
2023-04-11T12:11:26.128Z,100145.88
2023-04-11T12:14:21.519Z,100138.06
2023-04-11T12:17:08.789Z,100065.63
2023-04-11T12:19:55.373Z,100116.53
2023-04-11T12:22:40.469Z,100020.53
2023-04-11T12:25:25.598Z,100045.50
2023-04-11T12:28:10.879Z,100031.00
2023-04-11T12:30:56.013Z,99925.19
2023-04-11T12:33:41.487Z,99974.91
2023-04-11T12:36:26.959Z,99961.69
2023-04-11T12:39:12.458Z,99970.53
2023-04-11T12:41:57.745Z,100025.31
2023-04-11T12:44:44.232Z,100040.34
2023-04-11T12:47:29.608Z,99962.75
2023-04-11T12:50:14.923Z,99942.97
2023-04-11T12:53:00.421Z,99923.47
2023-04-11T12:55:46.180Z,99970.88
2023-04-11T12:58:31.756Z,99908.38
2023-04-11T13:01:17.129Z,99870.50
2023-04-11T13:04:03.045Z,99953.84
2023-04-11T13:06:48.406Z,99883.22
2023-04-11T13:09:34.335Z,99865.47
2023-04-11T13:12:19.231Z,99951.41
2023-04-11T13:15:04.522Z,99962.75
2023-04-11T13:17:50.188Z,99966.22
2023-04-11T13:20:35.213Z,99986.91
2023-04-11T13:23:20.553Z,99997.50
2023-04-11T13:26:06.351Z,100005.88
2023-04-11T13:28:51.768Z,99954.66
2023-04-11T13:31:37.347Z,99920.31
2023-04-11T13:34:22.419Z,99943.22
2023-04-11T13:37:07.850Z,99933.75
2023-04-11T13:39:52.976Z,99971.16
2023-04-11T13:42:38.279Z,99922.53
2023-04-11T13:45:23.749Z,99935.44
2023-04-11T13:48:09.040Z,99905.66
2023-04-11T13:50:54.323Z,99926.44
2023-04-11T13:53:39.898Z,99915.81
2023-04-11T13:56:25.433Z,99945.66
2023-04-11T13:59:10.782Z,99932.00
2023-04-11T14:01:56.135Z,99951.88
2023-04-11T14:04:41.586Z,99949.97
2023-04-11T14:07:26.911Z,99939.91
2023-04-11T14:10:12.279Z,99965.72
2023-04-11T14:12:57.561Z,99954.84
2023-04-11T14:15:42.880Z,99982.38
2023-04-11T14:18:28.227Z,100002.91
2023-04-11T14:21:13.449Z,99990.91
2023-04-11T14:23:58.797Z,100017.81
2023-04-11T14:26:44.082Z,99947.81
2023-04-11T14:29:29.566Z,99957.19
2023-04-11T14:32:14.870Z,99895.59
2023-04-11T14:35:01.899Z,99915.97
2023-04-11T14:37:47.118Z,99954.75
2023-04-11T14:40:32.506Z,99990.06
2023-04-11T14:43:17.876Z,99934.94
2023-04-11T14:46:03.441Z,99892.06
2023-04-11T14:48:48.759Z,99931.41
2023-04-11T14:51:35.053Z,99926.38
2023-04-11T14:54:23.000Z,99954.88
2023-04-11T14:57:08.283Z,99998.13
2023-04-11T14:59:53.928Z,100029.94
2023-04-11T15:02:39.349Z,99965.78
2023-04-11T15:05:24.606Z,99938.69
2023-04-11T15:08:09.889Z,99887.34
2023-04-11T15:10:55.219Z,99894.75
2023-04-11T15:13:40.583Z,99884.97
2023-04-11T15:16:25.958Z,99872.88
2023-04-11T15:19:11.306Z,99851.53
2023-04-11T15:21:56.837Z,99875.53
2023-04-11T15:24:42.110Z,99879.47
2023-04-11T15:27:27.489Z,99904.31
2023-04-11T15:30:12.815Z,99951.63
2023-04-11T15:32:58.166Z,99892.66
2023-04-11T15:35:44.578Z,99895.47
2023-04-11T15:38:29.620Z,99878.69
2023-04-11T15:41:14.997Z,99880.47
2023-04-11T15:44:00.111Z,99896.22
2023-04-11T15:46:46.935Z,99885.63
2023-04-11T15:49:34.016Z,99907.84
2023-04-11T15:52:19.330Z,99882.66
2023-04-11T15:55:05.305Z,99899.53
2023-04-11T15:57:51.566Z,99912.47
2023-04-11T16:00:38.045Z,99899.28
2023-04-11T16:03:23.510Z,99841.94
2023-04-11T16:06:08.739Z,99901.97
2023-04-11T16:08:54.299Z,99872.88
2023-04-11T16:11:39.744Z,99898.84
2023-04-11T16:14:24.849Z,99897.41
2023-04-11T16:17:10.078Z,99872.03
2023-04-11T16:19:55.492Z,99859.06
2023-04-11T16:22:40.956Z,99813.41
2023-04-11T16:25:26.505Z,99830.75
2023-04-11T16:28:11.700Z,99844.00
2023-04-11T16:30:58.386Z,99809.22
2023-04-11T16:33:43.404Z,99825.97
2023-04-11T16:36:28.840Z,99790.28
2023-04-11T16:39:14.204Z,99859.38
2023-04-11T16:41:59.081Z,99859.00
2023-04-11T16:44:44.597Z,99842.91
2023-04-11T16:47:30.125Z,99847.94
2023-04-11T16:50:15.470Z,99831.88
2023-04-11T16:53:00.735Z,99842.41
2023-04-11T16:55:46.292Z,99883.81
2023-04-11T16:58:31.806Z,99873.09
2023-04-11T17:01:17.193Z,99852.28
2023-04-11T17:04:02.524Z,99878.34
2023-04-11T17:06:47.616Z,99888.66
2023-04-11T17:09:33.018Z,99872.63
2023-04-11T17:12:18.283Z,99892.53
2023-04-11T17:15:03.756Z,99908.91
2023-04-11T17:17:49.034Z,99912.28
2023-04-11T17:20:33.927Z,99892.47
2023-04-11T17:23:23.920Z,99913.22
2023-04-11T17:26:14.376Z,99903.78
2023-04-11T17:28:59.654Z,99932.38
2023-04-11T17:31:46.312Z,99920.22
2023-04-11T17:34:31.547Z,99928.84
2023-04-11T17:37:16.791Z,99924.53
2023-04-11T17:40:02.285Z,99952.28
2023-04-11T17:42:47.801Z,99961.81
2023-04-11T17:45:33.204Z,99983.47
2023-04-11T17:48:18.585Z,99985.19
2023-04-11T17:51:04.778Z,99998.19
2023-04-11T17:53:50.116Z,100020.63
2023-04-11T17:56:35.458Z,100039.34
2023-04-11T17:59:20.656Z,100044.63
2023-04-11T18:02:06.845Z,100037.69
2023-04-11T18:04:52.415Z,100042.81
2023-04-11T18:07:37.870Z,100039.38
2023-04-11T18:10:24.105Z,100042.75
2023-04-11T18:13:09.344Z,100048.63
2023-04-11T18:15:54.874Z,100055.50
2023-04-11T18:18:39.909Z,100064.94
2023-04-11T18:21:25.252Z,100088.19
2023-04-11T18:24:10.637Z,100093.34
2023-04-11T18:26:56.068Z,100096.72
2023-04-11T18:29:41.606Z,100109.66
2023-04-11T18:32:32.350Z,100132.13
2023-04-11T18:35:21.073Z,100175.28
2023-04-11T18:38:06.128Z,100159.00
2023-04-11T18:40:55.307Z,100167.56
2023-04-11T18:43:41.614Z,100201.09
2023-04-11T18:46:27.306Z,100228.19
2023-04-11T18:49:14.061Z,100246.50
2023-04-11T18:52:02.072Z,100262.22
2023-04-11T18:54:47.509Z,100255.72
2023-04-11T18:57:34.427Z,100266.72
2023-04-11T19:00:20.555Z,100293.22
2023-04-11T19:03:06.155Z,100301.66
2023-04-11T19:05:51.864Z,100311.97
2023-04-11T19:08:37.049Z,100329.94
2023-04-11T19:11:22.235Z,100321.94
2023-04-11T19:14:08.829Z,100313.97
2023-04-11T19:16:54.189Z,100328.41
2023-04-11T19:19:39.920Z,100311.19
2023-04-11T19:22:25.223Z,100342.97
2023-04-11T19:25:11.671Z,100330.31
2023-04-11T19:27:56.930Z,100326.94
2023-04-11T19:30:42.297Z,100295.88
2023-04-11T19:33:27.679Z,100285.19
2023-04-11T19:36:13.094Z,100326.19
2023-04-11T19:38:58.505Z,100350.91
2023-04-11T19:41:44.864Z,100354.06
2023-04-11T19:44:30.238Z,100332.03
2023-04-11T19:47:15.746Z,100337.75
2023-04-11T19:50:01.397Z,100338.31
2023-04-11T19:52:46.484Z,100341.31
2023-04-11T19:55:31.734Z,100332.47
2023-04-11T19:58:17.662Z,100332.47
2023-04-11T20:01:03.978Z,100318.81
2023-04-11T20:03:49.153Z,100309.59
2023-04-11T20:06:34.570Z,100301.94
2023-04-11T20:09:19.935Z,100286.63
2023-04-11T20:12:05.428Z,100284.28
2023-04-11T20:14:50.873Z,100275.75
2023-04-11T20:17:36.320Z,100270.34
2023-04-11T20:20:21.953Z,100301.66
2023-04-11T20:23:07.235Z,100335.69
2023-04-11T20:25:52.548Z,100334.00
2023-04-11T20:28:37.934Z,100322.78
2023-04-11T20:31:24.043Z,100314.31
2023-04-11T20:34:09.244Z,100298.13
2023-04-11T20:36:55.017Z,100286.13
2023-04-11T20:39:40.325Z,100284.34
2023-04-11T20:42:26.486Z,100272.16
2023-04-11T20:45:16.681Z,100275.56
2023-04-11T20:48:02.030Z,100270.38
2023-04-11T20:50:47.417Z,100255.81
2023-04-11T20:53:32.800Z,100269.03
2023-04-11T20:56:18.197Z,100249.22
2023-04-11T20:59:03.910Z,100232.88
2023-04-11T21:01:49.203Z,100242.22
2023-04-11T21:04:34.522Z,100243.63
2023-04-11T21:07:20.651Z,100245.66
2023-04-11T21:10:06.533Z,100250.88
2023-04-11T21:12:51.961Z,100256.94
2023-04-11T21:15:36.883Z,100257.91
2023-04-11T21:18:22.324Z,100242.59
2023-04-11T21:21:11.221Z,100240.94
2023-04-11T21:23:56.980Z,100241.03
2023-04-11T21:26:42.471Z,100245.03
2023-04-11T21:29:28.815Z,100245.00
2023-04-11T21:32:14.291Z,100248.28
2023-04-11T21:34:59.252Z,100254.63
2023-04-11T21:37:45.989Z,100249.13
2023-04-11T21:40:32.942Z,100239.91
2023-04-11T21:43:18.393Z,100234.81
2023-04-11T21:46:03.747Z,100241.59
2023-04-11T21:48:50.866Z,100240.38
2023-04-11T21:51:36.690Z,100241.34
2023-04-11T21:54:22.263Z,100231.66
2023-04-11T21:57:07.407Z,100244.31
2023-04-11T21:59:52.834Z,100240.16
2023-04-11T22:02:38.623Z,100239.25
2023-04-11T22:05:24.172Z,100236.53
2023-04-11T22:08:14.834Z,100241.88
2023-04-11T22:11:00.450Z,100240.94
2023-04-11T22:13:46.286Z,100235.94
2023-04-11T22:16:31.906Z,100234.31
2023-04-11T22:19:18.214Z,100233.44
2023-04-11T22:22:04.546Z,100231.66
2023-04-11T22:24:49.765Z,100230.84
2023-04-11T22:27:35.114Z,100229.16
2023-04-11T22:30:20.502Z,100231.75
2023-04-11T22:33:05.978Z,100226.25
2023-04-11T22:35:51.425Z,100229.81
2023-04-11T22:38:36.909Z,100227.72
2023-04-11T22:41:22.246Z,100221.03
2023-04-11T22:44:07.838Z,100221.94
2023-04-11T22:47:03.566Z,100215.88
2023-04-11T22:49:48.726Z,100213.25
2023-04-11T22:52:33.973Z,100212.22
2023-04-11T22:55:19.367Z,100217.47
2023-04-11T22:58:04.825Z,100207.25
2023-04-11T23:00:50.170Z,100205.59
2023-04-11T23:03:35.654Z,100205.47
2023-04-11T23:06:20.915Z,100201.97
2023-04-11T23:09:06.368Z,100202.19
2023-04-11T23:11:52.378Z,100197.56
2023-04-11T23:14:37.599Z,100186.50
2023-04-11T23:17:22.531Z,100184.88
2023-04-11T23:20:08.476Z,100179.75
2023-04-11T23:22:53.388Z,100182.25
2023-04-11T23:25:39.098Z,100169.47
2023-04-11T23:28:23.897Z,100159.97
2023-04-11T23:31:08.722Z,100161.75
2023-04-11T23:33:53.947Z,100155.09
2023-04-11T23:36:38.921Z,100147.34
2023-04-11T23:39:23.768Z,100143.09
2023-04-11T23:42:09.400Z,100136.16
2023-04-11T23:44:54.630Z,100133.78
2023-04-11T23:47:40.389Z,100119.06
2023-04-11T23:50:25.417Z,100112.22
2023-04-11T23:53:10.865Z,100107.09
2023-04-11T23:55:56.395Z,100091.56
2023-04-11T23:58:41.733Z,100084.78
